EST,Max TemperatureF,Mean TemperatureF,Min TemperatureF,Max Dew PointF,MeanDew PointF,Min DewpointF,Max Humidity, Mean Humidity, Min Humidity, Max Sea Level PressureIn, Mean Sea Level PressureIn, Min Sea Level PressureIn, Max VisibilityMiles, Mean VisibilityMiles, Min VisibilityMiles, Max Wind SpeedMPH, Mean Wind SpeedMPH, Max Gust SpeedMPH,PrecipitationIn, CloudCover, Events, WindDirDegrees
2013-1-1,55,52,48,53,49,42,93,86,66,30.15,30.04,29.94,10,5,1,7,1,8,0.08,7,Rain,259
2013-1-2,58,54,50,54,51,44,100,91,77,30.18,30.00,29.91,10,6,1,9,2,14,0.15,8,Rain,53
2013-1-3,52,47,41,48,45,39,93,89,76,30.30,30.19,30.12,10,6,2,7,2,10,0.04,7,Rain,103
2013-1-4,56,45,34,37,34,29,100,82,38,30.38,30.32,30.26,10,5,0,9,1,13,0.00,2,Fog,303
2013-1-5,54,42,29,39,29,23,92,65,32,30.44,30.35,30.29,10,10,6,7,0,10,0.00,1,,220
2013-1-6,53,46,39,46,42,35,100,84,65,30.27,30.19,30.10,10,8,2,9,3,14,0.06,5,Rain,234
2013-1-7,57,45,33,37,33,30,100,73,36,30.43,30.36,30.23,10,10,7,9,1,15,0.00,0,,-1
2013-1-8,59,48,37,46,39,34,85,67,53,30.43,30.39,30.35,10,10,9,6,1,8,0.00,6,,50
2013-1-9,72,57,42,55,49,42,100,76,49,30.44,30.40,30.36,10,10,6,7,1,9,0.00,0,,345
2013-1-10,75,62,48,58,53,47,100,78,46,30.48,30.41,30.35,10,9,6,12,2,15,T,4,Rain,125
2013-1-11,75,66,56,62,58,55,100,91,64,30.34,30.26,30.16,10,5,0,13,3,16,0.00,7,Fog,144
2013-1-12,81,68,55,61,58,54,100,78,45,30.20,30.15,30.11,10,8,4,12,2,15,0.00,0,,221
2013-1-13,78,67,55,61,58,54,97,77,56,30.17,30.12,30.08,10,9,5,8,3,14,0.00,1,,194
2013-1-14,80,71,61,61,59,55,90,71,51,30.17,30.12,30.08,10,10,10,15,5,21,0.00,3,,188
2013-1-15,78,70,61,61,58,56,90,70,47,30.16,30.09,30.02,10,10,6,12,4,15,0.00,4,,184
2013-1-16,75,69,63,63,60,58,93,78,57,30.02,29.99,29.94,10,10,10,12,4,17,T,8,,232
2013-1-17,78,61,43,63,55,38,100,86,52,30.16,29.90,29.68,10,7,1,26,7,36,0.65,7,Rain,242
2013-1-18,55,45,34,37,30,18,100,65,24,30.53,30.41,30.17,10,10,10,12,2,20,0.00,1,,34
2013-1-19,60,46,31,39,31,25,89,64,32,30.52,30.39,30.23,10,9,4,6,0,8,0.00,0,,-1
2013-1-20,68,52,35,39,35,28,100,66,26,30.22,30.14,30.05,10,8,2,14,2,20,0.00,0,,267
2013-1-21,66,51,35,39,31,19,92,54,19,30.10,30.05,29.98,10,10,6,18,5,23,0.00,0,,263
2013-1-22,51,44,36,25,18,14,64,38,24,30.28,30.19,30.06,10,10,10,14,5,18,0.00,0,,290
2013-1-23,53,41,28,30,20,8,75,47,24,30.40,30.29,30.15,10,10,8,12,2,18,0.00,0,,223
2013-1-24,62,48,33,40,26,5,71,45,20,30.50,30.23,30.06,10,10,10,16,7,23,0.00,0,,298
2013-1-25,36,32,28,24,13,6,69,46,29,30.53,30.34,30.17,10,10,10,7,2,10,T,6,,126
2013-1-26,58,46,34,34,29,25,75,61,33,30.35,30.21,30.12,10,10,7,7,1,24,0.00,3,,78
2013-1-27,52,42,31,30,27,24,85,60,35,30.56,30.49,30.37,10,9,5,9,3,15,0.00,1,,88
2013-1-28,59,49,38,44,36,27,92,71,53,30.49,30.40,30.31,10,7,5,5,0,9,T,5,Rain,83
2013-1-29,78,59,40,62,49,37,96,80,48,30.30,30.21,30.09,10,6,1,14,3,20,0.00,4,,184
2013-1-30,81,68,55,64,60,52,90,77,45,30.08,29.79,29.54,10,9,1,24,13,33,0.44,7,Rain,204
2013-1-31,55,49,42,52,30,16,83,51,22,30.17,29.92,29.69,10,10,10,31,14,45,0.00,2,,266